createdAt,value
2018-06-03T00:01:19.738Z,17.10
2018-06-03T00:03:48.213Z,16.90
2018-06-03T00:06:16.746Z,16.80
2018-06-03T00:08:45.224Z,16.60
2018-06-03T00:11:13.707Z,16.70
2018-06-03T00:13:42.205Z,16.70
2018-06-03T00:16:10.625Z,16.70
2018-06-03T00:18:39.105Z,16.60
2018-06-03T00:23:41.481Z,16.30
2018-06-03T00:26:10.002Z,16.20
2018-06-03T00:28:38.446Z,16.20
2018-06-03T00:31:07.532Z,16.20
2018-06-03T00:33:35.973Z,16.20
2018-06-03T00:36:15.669Z,16.10
2018-06-03T00:38:44.145Z,16.10
2018-06-03T00:41:12.617Z,16.10
2018-06-03T00:43:41.058Z,16.10
2018-06-03T00:46:09.532Z,16.10
2018-06-03T00:48:40.113Z,16.10
2018-06-03T00:51:08.569Z,16.00
2018-06-03T00:53:37.000Z,15.90
2018-06-03T00:56:05.466Z,15.90
2018-06-03T00:58:33.913Z,16.00
2018-06-03T01:01:02.387Z,16.00
2018-06-03T01:03:30.805Z,15.90
2018-06-03T01:05:59.276Z,15.90
2018-06-03T01:08:27.746Z,15.80
2018-06-03T01:13:24.449Z,15.80
2018-06-03T01:15:52.905Z,15.80
2018-06-03T01:18:21.366Z,15.70
2018-06-03T01:20:49.795Z,15.70
2018-06-03T01:23:18.532Z,15.50
2018-06-03T01:25:46.990Z,15.50
2018-06-03T01:28:15.506Z,15.40
2018-06-03T01:30:43.984Z,15.40
2018-06-03T01:33:13.685Z,15.30
2018-06-03T01:35:43.605Z,15.30
2018-06-03T01:38:12.119Z,15.20
2018-06-03T01:40:40.549Z,15.20
2018-06-03T01:43:09.008Z,15.10
2018-06-03T01:45:37.597Z,15.00
2018-06-03T01:48:06.141Z,15.00
2018-06-03T01:50:34.628Z,14.90
2018-06-03T01:53:03.186Z,14.90
2018-06-03T01:55:31.678Z,15.00
2018-06-03T01:58:00.174Z,15.10
2018-06-03T02:00:28.658Z,15.00
2018-06-03T02:02:57.118Z,14.90
2018-06-03T02:05:25.677Z,14.90
2018-06-03T02:07:54.273Z,14.80
2018-06-03T02:10:22.776Z,14.70
2018-06-03T02:12:51.306Z,14.70
2018-06-03T02:15:19.727Z,14.60
2018-06-03T02:17:48.238Z,14.50
2018-06-03T02:20:16.843Z,14.60
2018-06-03T02:22:45.421Z,14.50
2018-06-03T02:25:13.921Z,14.40
2018-06-03T02:27:42.377Z,14.40
2018-06-03T02:30:10.890Z,14.30
2018-06-03T02:32:39.368Z,14.30
2018-06-03T02:35:07.853Z,14.40
2018-06-03T02:37:37.729Z,14.40
2018-06-03T02:40:06.278Z,14.40
2018-06-03T02:42:34.770Z,14.40
2018-06-03T02:47:31.374Z,14.30
2018-06-03T02:49:59.858Z,14.30
2018-06-03T02:52:28.317Z,14.20
2018-06-03T02:54:56.790Z,14.20
2018-06-03T02:57:25.416Z,14.20
2018-06-03T02:59:53.976Z,14.10
2018-06-03T03:02:22.839Z,14.10
2018-06-03T03:04:51.287Z,14.10
2018-06-03T03:07:19.745Z,14.10
2018-06-03T03:09:48.397Z,14.00
2018-06-03T03:12:16.862Z,14.00
2018-06-03T03:14:45.339Z,14.00
2018-06-03T03:17:13.829Z,14.00
2018-06-03T03:19:42.272Z,14.00
2018-06-03T03:22:10.769Z,14.00
2018-06-03T03:24:39.237Z,14.00
2018-06-03T03:27:07.709Z,14.00
2018-06-03T03:29:36.161Z,14.00
2018-06-03T03:32:04.657Z,14.00
2018-06-03T03:34:33.160Z,14.00
2018-06-03T03:39:29.837Z,14.00
2018-06-03T03:41:58.298Z,14.00
2018-06-03T03:44:26.741Z,14.10
2018-06-03T03:46:55.222Z,14.10
2018-06-03T03:49:23.673Z,14.10
2018-06-03T03:51:52.148Z,14.10
2018-06-03T03:54:20.691Z,14.20
2018-06-03T03:56:49.181Z,14.30
2018-06-03T03:59:17.645Z,14.30
2018-06-03T04:01:46.237Z,14.40
2018-06-03T04:04:14.711Z,14.50
2018-06-03T04:09:11.455Z,14.90
2018-06-03T04:11:40.015Z,15.20
2018-06-03T04:14:08.485Z,15.50
2018-06-03T04:16:36.958Z,15.80
2018-06-03T04:19:05.411Z,15.80
2018-06-03T04:21:33.918Z,15.80
2018-06-03T04:24:02.445Z,15.60
2018-06-03T04:26:31.249Z,15.60
2018-06-03T04:31:27.861Z,16.30
2018-06-03T04:33:56.391Z,16.60
2018-06-03T04:36:24.849Z,16.80
2018-06-03T04:38:53.368Z,18.10
2018-06-03T04:41:21.907Z,17.40
2018-06-03T04:43:50.345Z,17.60
2018-06-03T04:46:18.895Z,17.70
2018-06-03T04:48:47.446Z,18.70
2018-06-03T04:51:16.555Z,18.90
2018-06-03T04:56:13.147Z,18.60
2018-06-03T04:58:41.615Z,19.30
2018-06-03T05:01:10.076Z,19.20
2018-06-03T05:03:39.046Z,19.80
2018-06-03T05:06:07.517Z,20.20
2018-06-03T05:08:36.008Z,19.90
2018-06-03T05:13:32.623Z,19.60
2018-06-03T05:16:01.081Z,19.90
2018-06-03T05:18:29.581Z,19.90
2018-06-03T05:20:58.048Z,20.70
2018-06-03T05:23:26.503Z,21.40
2018-06-03T05:25:54.964Z,21.20
2018-06-03T05:28:23.687Z,21.20
2018-06-03T05:30:52.125Z,21.40
2018-06-03T05:33:20.664Z,21.40
2018-06-03T05:35:49.127Z,21.90
2018-06-03T05:38:17.601Z,22.10
2018-06-03T05:40:46.104Z,22.40
2018-06-03T05:43:14.580Z,22.70
2018-06-03T05:45:43.058Z,22.90
2018-06-03T05:48:11.521Z,22.90
2018-06-03T05:50:40.053Z,22.30
2018-06-03T05:53:08.840Z,22.70
2018-06-03T05:58:05.460Z,23.80
2018-06-03T06:00:33.949Z,23.80
2018-06-03T06:03:02.437Z,23.60
2018-06-03T06:05:30.897Z,23.60
2018-06-03T06:07:59.401Z,23.20
2018-06-03T06:10:27.829Z,23.60
2018-06-03T06:12:56.417Z,23.20
2018-06-03T06:15:24.867Z,22.90
2018-06-03T06:17:53.631Z,23.70
2018-06-03T06:20:22.085Z,24.20
2018-06-03T06:22:50.556Z,24.40
2018-06-03T06:25:19.022Z,23.50
2018-06-03T06:27:47.546Z,23.70
2018-06-03T06:30:16.285Z,25.10
2018-06-03T06:32:44.740Z,24.10
2018-06-03T06:35:13.193Z,24.50
2018-06-03T06:37:43.726Z,24.90
2018-06-03T06:40:12.277Z,24.40
2018-06-03T06:42:41.082Z,23.30
2018-06-03T06:45:09.542Z,22.30
2018-06-03T06:47:37.981Z,21.40
2018-06-03T06:50:06.564Z,21.50
2018-06-03T06:55:03.125Z,21.90
2018-06-03T06:57:31.575Z,22.70
2018-06-03T07:00:00.026Z,22.70
2018-06-03T07:02:28.494Z,22.50
2018-06-03T07:04:56.978Z,21.90
2018-06-03T07:07:25.488Z,23.00
2018-06-03T07:09:53.949Z,23.50
2018-06-03T07:12:22.402Z,21.60
2018-06-03T07:14:50.893Z,21.30
2018-06-03T07:17:19.347Z,21.00
2018-06-03T07:19:47.799Z,21.90
2018-06-03T07:22:16.429Z,23.90
2018-06-03T07:24:44.882Z,23.30
2018-06-03T07:27:13.386Z,21.60
2018-06-03T07:29:42.037Z,21.30
2018-06-03T07:32:10.567Z,22.10
2018-06-03T07:34:38.978Z,21.60
2018-06-03T07:37:07.485Z,22.90
2018-06-03T07:39:35.988Z,22.00
2018-06-03T07:42:04.546Z,21.70
2018-06-03T07:44:33.098Z,21.50
2018-06-03T07:47:01.598Z,21.40
2018-06-03T07:49:32.003Z,21.30
2018-06-03T07:52:00.485Z,22.20
2018-06-03T07:54:28.948Z,22.30
2018-06-03T07:56:57.868Z,21.60
2018-06-03T07:59:26.761Z,22.90
2018-06-03T08:01:55.292Z,23.50
2018-06-03T08:04:23.761Z,23.10
2018-06-03T08:06:52.230Z,23.20
2018-06-03T08:09:20.793Z,22.30
2018-06-03T08:11:49.254Z,23.30
2018-06-03T08:14:17.737Z,22.40
2018-06-03T08:16:46.224Z,22.30
2018-06-03T08:19:14.827Z,24.80
2018-06-03T08:21:43.359Z,24.30
2018-06-03T08:26:39.969Z,23.00
2018-06-03T08:29:08.542Z,23.30
2018-06-03T08:31:37.298Z,24.80
2018-06-03T08:34:05.772Z,25.60
2018-06-03T08:36:34.261Z,25.40
2018-06-03T08:39:02.898Z,24.80
2018-06-03T08:43:59.565Z,23.30
2018-06-03T08:46:28.055Z,23.20
2018-06-03T08:48:57.005Z,24.00
2018-06-03T08:51:25.815Z,23.20
2018-06-03T08:53:54.474Z,24.50
2018-06-03T08:56:23.052Z,24.60
2018-06-03T08:58:51.561Z,22.80
2018-06-03T09:03:48.269Z,25.00
2018-06-03T09:06:16.742Z,23.60
2018-06-03T09:08:45.207Z,23.90
2018-06-03T09:11:13.761Z,24.10
2018-06-03T09:13:42.246Z,23.10
2018-06-03T09:18:38.972Z,24.00
2018-06-03T09:21:07.484Z,24.90
2018-06-03T09:23:35.958Z,25.50
2018-06-03T09:26:04.501Z,24.70
2018-06-03T09:28:33.129Z,25.10
2018-06-03T09:31:06.952Z,26.10
2018-06-03T09:33:36.309Z,24.00
2018-06-03T09:38:34.730Z,24.40
2018-06-03T09:41:03.372Z,24.20
2018-06-03T09:43:31.841Z,24.50
2018-06-03T09:46:00.664Z,24.90
2018-06-03T09:48:29.129Z,26.70
2018-06-03T09:50:57.662Z,26.80
2018-06-03T09:53:27.213Z,25.50
2018-06-03T09:55:55.727Z,24.60
2018-06-03T09:58:24.202Z,24.90
2018-06-03T10:00:52.672Z,24.80
2018-06-03T10:03:21.214Z,25.00
2018-06-03T10:05:49.742Z,24.50
2018-06-03T10:08:18.241Z,23.40
2018-06-03T10:10:47.101Z,22.80
2018-06-03T10:13:15.621Z,23.10
2018-06-03T10:15:44.108Z,23.70
2018-06-03T10:18:12.606Z,24.20
2018-06-03T10:20:41.472Z,23.90
2018-06-03T10:23:09.949Z,23.90
2018-06-03T10:25:38.490Z,23.70
2018-06-03T10:28:07.120Z,24.20
2018-06-03T10:30:35.625Z,24.50
2018-06-03T10:33:06.880Z,23.80
2018-06-03T10:35:35.386Z,24.10
2018-06-03T10:38:03.906Z,24.80
2018-06-03T10:40:32.447Z,23.90
2018-06-03T10:43:00.978Z,23.40
2018-06-03T10:45:29.569Z,24.30
2018-06-03T10:47:58.173Z,24.60
2018-06-03T10:50:26.982Z,24.60
2018-06-03T10:52:55.523Z,25.00
2018-06-03T10:55:24.105Z,24.80
2018-06-03T10:57:52.632Z,23.60
2018-06-03T11:00:21.166Z,23.20
2018-06-03T11:02:49.929Z,24.40
2018-06-03T11:05:18.450Z,25.10
2018-06-03T11:07:46.994Z,25.80
2018-06-03T11:10:15.494Z,23.90
2018-06-03T11:12:44.436Z,24.10
2018-06-03T11:15:12.927Z,24.40
2018-06-03T11:17:41.404Z,23.40
2018-06-03T11:20:09.896Z,23.60
2018-06-03T11:22:38.377Z,24.60
2018-06-03T11:25:06.983Z,24.70
2018-06-03T11:27:35.502Z,24.40
2018-06-03T11:30:04.092Z,25.00
2018-06-03T11:32:32.590Z,24.90
2018-06-03T11:35:01.143Z,25.80
2018-06-03T11:37:30.265Z,25.00
2018-06-03T11:39:58.753Z,25.60
2018-06-03T11:42:27.277Z,24.80
2018-06-03T11:44:55.807Z,24.10
2018-06-03T11:47:24.272Z,23.60
2018-06-03T11:49:55.220Z,23.70
2018-06-03T11:52:23.689Z,24.50
2018-06-03T11:57:20.457Z,24.60
2018-06-03T11:59:48.977Z,23.80
2018-06-03T12:02:18.690Z,23.10
2018-06-03T12:04:47.160Z,23.50
2018-06-03T12:07:15.673Z,23.80
2018-06-03T12:09:44.183Z,23.60
2018-06-03T12:12:12.669Z,24.40
2018-06-03T12:14:41.178Z,24.00
2018-06-03T12:17:10.027Z,23.80
2018-06-03T12:19:38.597Z,24.30
2018-06-03T12:22:07.181Z,24.20
2018-06-03T12:24:35.661Z,25.20
2018-06-03T12:29:32.281Z,25.90
2018-06-03T12:32:00.769Z,27.10
2018-06-03T12:34:29.242Z,27.90
2018-06-03T12:36:57.722Z,26.60
2018-06-03T12:39:26.245Z,25.70
2018-06-03T12:41:54.900Z,25.00
2018-06-03T12:44:23.329Z,24.70
2018-06-03T12:46:51.893Z,24.60
2018-06-03T12:49:20.373Z,24.40
2018-06-03T12:51:48.945Z,24.20
2018-06-03T12:54:17.583Z,24.10
2018-06-03T12:56:47.293Z,24.60
2018-06-03T12:59:15.787Z,24.80
2018-06-03T13:01:44.236Z,24.50
2018-06-03T13:04:12.829Z,25.30
2018-06-03T13:06:41.454Z,25.10
2018-06-03T13:09:10.789Z,25.90
2018-06-03T13:11:39.345Z,25.00
2018-06-03T13:14:08.007Z,24.20
2018-06-03T13:16:36.562Z,23.50
2018-06-03T13:19:05.161Z,23.70
2018-06-03T13:21:33.651Z,24.20
2018-06-03T13:24:02.172Z,24.00
2018-06-03T13:26:30.701Z,24.30
2018-06-03T13:28:59.303Z,25.60
2018-06-03T13:31:27.861Z,25.90
2018-06-03T13:33:56.761Z,25.10
2018-06-03T13:36:25.284Z,26.30
2018-06-03T13:38:53.813Z,25.00
2018-06-03T13:41:22.442Z,24.80
2018-06-03T13:43:51.326Z,25.50
2018-06-03T13:46:19.854Z,25.70
2018-06-03T13:48:48.302Z,24.80
2018-06-03T13:51:16.773Z,24.80
2018-06-03T13:53:45.355Z,25.50
2018-06-03T13:56:13.916Z,25.60
2018-06-03T13:58:42.439Z,25.60
2018-06-03T14:01:10.895Z,24.70
2018-06-03T14:03:39.505Z,24.50
2018-06-03T14:06:07.978Z,24.20
2018-06-03T14:08:36.521Z,24.80
2018-06-03T14:11:05.050Z,25.50
2018-06-03T14:13:33.517Z,24.80
2018-06-03T14:16:01.955Z,25.00
2018-06-03T14:18:30.453Z,24.60
2018-06-03T14:20:59.867Z,24.40
2018-06-03T14:25:56.514Z,24.80
2018-06-03T14:28:24.995Z,24.20
2018-06-03T14:30:53.517Z,23.90
2018-06-03T14:33:22.096Z,24.00
2018-06-03T14:35:50.896Z,24.40
2018-06-03T14:38:19.343Z,24.20
2018-06-03T14:40:48.135Z,24.20
2018-06-03T14:43:16.632Z,24.40
2018-06-03T14:45:45.132Z,24.40
2018-06-03T14:48:13.637Z,24.20
2018-06-03T14:50:42.185Z,24.10
2018-06-03T14:53:10.597Z,24.20
2018-06-03T14:55:39.137Z,23.90
2018-06-03T14:58:07.625Z,24.40
2018-06-03T15:00:36.050Z,24.50
2018-06-03T15:03:04.608Z,24.40
2018-06-03T15:05:33.057Z,24.20
2018-06-03T15:08:01.586Z,24.40
2018-06-03T15:10:30.086Z,24.40
2018-06-03T15:12:58.588Z,24.20
2018-06-03T15:15:27.128Z,24.40
2018-06-03T15:17:55.590Z,24.40
2018-06-03T15:20:24.118Z,24.30
2018-06-03T15:22:52.604Z,24.20
2018-06-03T15:25:21.090Z,24.00
2018-06-03T15:27:49.553Z,23.90
2018-06-03T15:30:18.041Z,24.00
2018-06-03T15:32:46.493Z,23.80
2018-06-03T15:35:14.971Z,24.40
2018-06-03T15:37:43.839Z,24.00
2018-06-03T15:42:42.027Z,24.30
2018-06-03T15:45:10.564Z,24.20
2018-06-03T15:47:39.077Z,24.00
2018-06-03T15:52:35.792Z,23.80
2018-06-03T15:55:04.356Z,23.90
2018-06-03T15:57:33.181Z,23.90
2018-06-03T16:00:01.729Z,24.10
2018-06-03T16:02:30.406Z,24.00
2018-06-03T16:04:58.894Z,23.80
2018-06-03T16:07:30.076Z,23.90
2018-06-03T16:09:58.605Z,23.90
2018-06-03T16:12:27.150Z,23.70
2018-06-03T16:14:55.669Z,24.00
2018-06-03T16:17:24.177Z,24.00
2018-06-03T16:19:52.653Z,24.30
2018-06-03T16:22:21.452Z,24.20
2018-06-03T16:24:50.092Z,24.00
2018-06-03T16:27:18.593Z,23.70
2018-06-03T16:29:47.243Z,23.60
2018-06-03T16:32:15.705Z,23.90
2018-06-03T16:34:44.210Z,23.80
2018-06-03T16:37:12.816Z,23.50
2018-06-03T16:39:41.312Z,23.90
2018-06-03T16:42:09.796Z,23.80
2018-06-03T16:44:38.254Z,23.90
2018-06-03T16:47:06.797Z,23.70
2018-06-03T16:49:35.340Z,24.10
2018-06-03T16:52:03.899Z,23.60
2018-06-03T16:54:32.447Z,23.50
2018-06-03T16:57:00.861Z,23.50
2018-06-03T16:59:29.392Z,23.50
2018-06-03T17:01:57.885Z,23.50
2018-06-03T17:04:26.439Z,23.70
2018-06-03T17:06:55.209Z,23.40
2018-06-03T17:09:25.846Z,23.40
2018-06-03T17:11:54.339Z,23.60
2018-06-03T17:16:51.168Z,23.40
2018-06-03T17:19:19.725Z,23.40
2018-06-03T17:21:48.173Z,23.40
2018-06-03T17:24:16.666Z,23.40
2018-06-03T17:26:45.123Z,23.20
2018-06-03T17:31:41.824Z,23.30
2018-06-03T17:34:10.419Z,23.20
2018-06-03T17:36:38.940Z,23.30
2018-06-03T17:39:08.622Z,23.20
2018-06-03T17:41:37.093Z,23.20
2018-06-03T17:44:05.604Z,23.10
2018-06-03T17:46:34.104Z,23.20
2018-06-03T17:51:31.029Z,23.20
2018-06-03T17:53:59.669Z,23.10
2018-06-03T17:56:28.170Z,22.90
2018-06-03T17:58:56.728Z,23.00
2018-06-03T18:01:26.293Z,22.90
2018-06-03T18:03:55.732Z,22.80
2018-06-03T18:06:24.378Z,23.00
2018-06-03T18:08:52.842Z,22.80
2018-06-03T18:11:21.279Z,22.80
2018-06-03T18:13:49.806Z,22.80
2018-06-03T18:16:18.313Z,22.80
2018-06-03T18:18:46.784Z,22.50
2018-06-03T18:21:15.265Z,22.50
2018-06-03T18:26:11.873Z,22.70
2018-06-03T18:28:40.386Z,22.60
2018-06-03T18:31:08.853Z,22.60
2018-06-03T18:33:37.321Z,22.70
2018-06-03T18:36:05.940Z,22.60
2018-06-03T18:38:34.410Z,22.50
2018-06-03T18:43:31.041Z,22.40
2018-06-03T18:45:59.524Z,22.40
2018-06-03T18:48:28.018Z,22.40
2018-06-03T18:50:56.469Z,22.40
2018-06-03T18:53:24.984Z,22.30
2018-06-03T18:55:53.518Z,22.30
2018-06-03T18:58:21.981Z,22.20
2018-06-03T19:00:50.492Z,22.10
2018-06-03T19:03:18.909Z,22.00
2018-06-03T19:05:47.401Z,21.90
2018-06-03T19:08:15.869Z,21.90
2018-06-03T19:10:44.507Z,21.90
2018-06-03T19:13:12.971Z,21.80
2018-06-03T19:15:41.501Z,21.70
2018-06-03T19:18:10.329Z,21.60
2018-06-03T19:20:38.889Z,21.60
2018-06-03T19:23:07.325Z,21.50
2018-06-03T19:25:35.850Z,21.50
2018-06-03T19:28:04.343Z,21.50
2018-06-03T19:30:35.047Z,21.50
2018-06-03T19:33:03.530Z,21.40
2018-06-03T19:38:00.207Z,21.30
2018-06-03T19:40:28.646Z,21.20
2018-06-03T19:42:57.166Z,21.20
2018-06-03T19:45:25.669Z,21.10
2018-06-03T19:47:54.250Z,21.20
2018-06-03T19:50:22.734Z,21.10
2018-06-03T19:52:51.177Z,21.10
2018-06-03T19:55:19.662Z,21.00
2018-06-03T19:57:48.097Z,20.80
2018-06-03T20:00:18.149Z,20.70
2018-06-03T20:02:46.616Z,20.60
2018-06-03T20:05:15.073Z,20.60
2018-06-03T20:07:43.657Z,20.50
2018-06-03T20:10:12.133Z,20.40
2018-06-03T20:12:40.591Z,20.40
2018-06-03T20:15:09.132Z,20.30
2018-06-03T20:17:37.711Z,20.20
2018-06-03T20:20:07.053Z,20.30
2018-06-03T20:22:37.197Z,20.10
2018-06-03T20:25:05.707Z,20.20
2018-06-03T20:27:34.201Z,20.00
2018-06-03T20:30:02.692Z,19.90
2018-06-03T20:32:31.164Z,19.90
2018-06-03T20:34:59.644Z,19.80
2018-06-03T20:37:28.123Z,19.70
2018-06-03T20:39:56.608Z,19.70
2018-06-03T20:42:25.229Z,19.60
2018-06-03T20:44:53.689Z,19.60
2018-06-03T20:47:22.548Z,19.60
2018-06-03T20:49:51.065Z,19.60
2018-06-03T20:52:19.686Z,19.50
2018-06-03T20:54:48.166Z,19.50
2018-06-03T20:57:16.630Z,19.40
2018-06-03T20:59:45.094Z,19.30
2018-06-03T21:02:13.607Z,19.30
2018-06-03T21:04:42.056Z,19.30
2018-06-03T21:07:10.549Z,19.20
2018-06-03T21:09:39.524Z,19.10
2018-06-03T21:12:08.009Z,19.00
2018-06-03T21:14:36.690Z,19.00
2018-06-03T21:17:05.211Z,19.00
2018-06-03T21:19:33.703Z,18.90
2018-06-03T21:22:02.132Z,18.80
2018-06-03T21:24:30.590Z,18.80
2018-06-03T21:26:59.102Z,18.80
2018-06-03T21:29:27.573Z,18.70
2018-06-03T21:31:59.192Z,18.70
2018-06-03T21:34:27.644Z,18.10
2018-06-03T21:36:56.145Z,18.60
2018-06-03T21:39:24.720Z,18.60
2018-06-03T21:41:53.225Z,18.50
2018-06-03T21:44:21.736Z,18.60
2018-06-03T21:46:50.291Z,18.50
2018-06-03T21:49:18.815Z,18.40
2018-06-03T21:51:47.311Z,18.30
2018-06-03T21:54:15.831Z,18.30
2018-06-03T21:56:44.326Z,18.20
2018-06-03T21:59:12.797Z,18.20
2018-06-03T22:01:41.257Z,18.20
2018-06-03T22:04:09.965Z,18.20
2018-06-03T22:06:38.418Z,18.10
2018-06-03T22:09:08.217Z,18.20
2018-06-03T22:11:36.851Z,18.10
2018-06-03T22:14:05.631Z,18.10
2018-06-03T22:16:34.087Z,18.10
2018-06-03T22:19:02.544Z,18.10
2018-06-03T22:21:31.030Z,18.00
2018-06-03T22:23:59.669Z,17.90
2018-06-03T22:26:28.158Z,17.90
2018-06-03T22:28:58.161Z,17.80
2018-06-03T22:31:26.722Z,17.70
2018-06-03T22:33:55.265Z,17.80
2018-06-03T22:36:23.876Z,17.80
2018-06-03T22:38:52.297Z,17.70
2018-06-03T22:41:20.793Z,18.60
2018-06-03T22:43:49.270Z,17.60
2018-06-03T22:46:17.755Z,17.60
2018-06-03T22:48:47.099Z,17.60
2018-06-03T22:51:15.590Z,17.60
2018-06-03T22:53:44.093Z,17.50
2018-06-03T22:56:12.585Z,17.40
2018-06-03T22:58:41.591Z,17.30
2018-06-03T23:01:10.096Z,17.30
2018-06-03T23:03:38.653Z,17.30
2018-06-03T23:06:07.129Z,17.20
2018-06-03T23:08:35.606Z,17.20
2018-06-03T23:11:04.073Z,17.30
2018-06-03T23:13:32.537Z,17.30
2018-06-03T23:16:01.041Z,17.30
2018-06-03T23:18:29.537Z,17.30
2018-06-03T23:20:59.555Z,17.20
2018-06-03T23:23:28.187Z,17.10
2018-06-03T23:25:56.653Z,17.00
2018-06-03T23:28:25.156Z,17.10
2018-06-03T23:30:53.597Z,17.10
2018-06-03T23:33:22.157Z,16.90
2018-06-03T23:35:50.591Z,16.90
2018-06-03T23:38:20.703Z,16.90
2018-06-03T23:40:55.666Z,16.90
2018-06-03T23:43:24.309Z,16.70
2018-06-03T23:48:20.916Z,16.70
2018-06-03T23:50:49.369Z,16.60
2018-06-03T23:55:45.972Z,16.60
2018-06-03T23:58:14.451Z,16.50
